sensor_id;sensor_type;location;lat;lon;timestamp;temperature;humidity
3752;DHT22;50827;47.014;7.652;2022-11-23T00:00:06;6.50;99.90
3752;DHT22;50827;47.014;7.652;2022-11-23T00:02:32;6.50;99.90
3752;DHT22;50827;47.014;7.652;2022-11-23T00:04:59;6.40;99.90
3752;DHT22;50827;47.014;7.652;2022-11-23T00:07:26;6.50;99.90
3752;DHT22;50827;47.014;7.652;2022-11-23T00:09:52;6.50;99.90
3752;DHT22;50827;47.014;7.652;2022-11-23T00:12:19;6.50;99.90
3752;DHT22;50827;47.014;7.652;2022-11-23T00:14:46;6.50;99.90
3752;DHT22;50827;47.014;7.652;2022-11-23T00:17:12;6.50;99.90
3752;DHT22;50827;47.014;7.652;2022-11-23T00:19:39;6.50;99.90
3752;DHT22;50827;47.014;7.652;2022-11-23T00:22:05;6.50;99.90
3752;DHT22;50827;47.014;7.652;2022-11-23T00:24:32;6.50;99.90
3752;DHT22;50827;47.014;7.652;2022-11-23T00:26:59;6.40;99.90
3752;DHT22;50827;47.014;7.652;2022-11-23T00:29:25;6.40;99.90
3752;DHT22;50827;47.014;7.652;2022-11-23T00:31:52;6.40;99.90
3752;DHT22;50827;47.014;7.652;2022-11-23T00:34:19;6.40;99.90
3752;DHT22;50827;47.014;7.652;2022-11-23T00:36:45;6.30;99.90
3752;DHT22;50827;47.014;7.652;2022-11-23T00:39:12;6.30;99.90
3752;DHT22;50827;47.014;7.652;2022-11-23T00:41:39;6.20;99.90
3752;DHT22;50827;47.014;7.652;2022-11-23T00:44:05;6.30;99.90
3752;DHT22;50827;47.014;7.652;2022-11-23T00:46:33;6.30;99.90
3752;DHT22;50827;47.014;7.652;2022-11-23T00:48:59;6.20;99.90
3752;DHT22;50827;47.014;7.652;2022-11-23T00:51:29;6.20;99.90
3752;DHT22;50827;47.014;7.652;2022-11-23T00:53:58;6.20;99.90
3752;DHT22;50827;47.014;7.652;2022-11-23T00:56:25;6.30;99.90
3752;DHT22;50827;47.014;7.652;2022-11-23T00:58:54;6.20;99.90
3752;DHT22;50827;47.014;7.652;2022-11-23T01:01:24;6.20;99.90
3752;DHT22;50827;47.014;7.652;2022-11-23T01:03:56;6.10;99.90
3752;DHT22;50827;47.014;7.652;2022-11-23T01:06:34;6.10;99.90
3752;DHT22;50827;47.014;7.652;2022-11-23T01:09:04;6.10;99.90
3752;DHT22;50827;47.014;7.652;2022-11-23T01:11:31;6.10;99.90
3752;DHT22;50827;47.014;7.652;2022-11-23T01:13:58;6.10;99.90
3752;DHT22;50827;47.014;7.652;2022-11-23T01:16:31;6.00;99.90
3752;DHT22;50827;47.014;7.652;2022-11-23T01:19:00;5.90;99.90
3752;DHT22;50827;47.014;7.652;2022-11-23T01:21:29;5.80;99.90
3752;DHT22;50827;47.014;7.652;2022-11-23T01:23:56;5.80;99.90
3752;DHT22;50827;47.014;7.652;2022-11-23T01:26:23;5.80;99.90
3752;DHT22;50827;47.014;7.652;2022-11-23T01:28:50;5.70;99.90
3752;DHT22;50827;47.014;7.652;2022-11-23T01:31:21;5.70;99.90
3752;DHT22;50827;47.014;7.652;2022-11-23T01:33:52;5.60;99.90
3752;DHT22;50827;47.014;7.652;2022-11-23T01:36:23;5.60;99.90
3752;DHT22;50827;47.014;7.652;2022-11-23T01:38:50;5.50;99.90
3752;DHT22;50827;47.014;7.652;2022-11-23T01:41:20;5.50;99.90
3752;DHT22;50827;47.014;7.652;2022-11-23T01:43:47;5.50;99.90
3752;DHT22;50827;47.014;7.652;2022-11-23T01:46:14;5.50;99.90
3752;DHT22;50827;47.014;7.652;2022-11-23T01:51:33;5.40;99.90
3752;DHT22;50827;47.014;7.652;2022-11-23T01:54:29;5.40;99.90
3752;DHT22;50827;47.014;7.652;2022-11-23T01:57:05;5.40;99.90
3752;DHT22;50827;47.014;7.652;2022-11-23T01:59:34;5.40;99.90
3752;DHT22;50827;47.014;7.652;2022-11-23T02:02:01;5.40;99.90
3752;DHT22;50827;47.014;7.652;2022-11-23T02:04:31;5.40;99.90
3752;DHT22;50827;47.014;7.652;2022-11-23T02:07:00;5.50;99.90
3752;DHT22;50827;47.014;7.652;2022-11-23T02:09:30;5.50;99.90
3752;DHT22;50827;47.014;7.652;2022-11-23T02:11:58;5.50;99.90
3752;DHT22;50827;47.014;7.652;2022-11-23T02:14:25;5.40;99.90
3752;DHT22;50827;47.014;7.652;2022-11-23T02:16:51;5.40;99.90
3752;DHT22;50827;47.014;7.652;2022-11-23T02:22:16;5.30;99.90
3752;DHT22;50827;47.014;7.652;2022-11-23T02:24:48;5.20;99.90
3752;DHT22;50827;47.014;7.652;2022-11-23T02:27:18;5.20;99.90
3752;DHT22;50827;47.014;7.652;2022-11-23T02:29:46;5.20;99.90
3752;DHT22;50827;47.014;7.652;2022-11-23T02:32:22;5.20;99.90
3752;DHT22;50827;47.014;7.652;2022-11-23T02:34:50;5.10;99.90
3752;DHT22;50827;47.014;7.652;2022-11-23T02:37:17;5.10;99.90
3752;DHT22;50827;47.014;7.652;2022-11-23T02:39:47;5.10;99.90
3752;DHT22;50827;47.014;7.652;2022-11-23T02:42:14;5.00;99.90
3752;DHT22;50827;47.014;7.652;2022-11-23T02:45:05;5.00;99.90
3752;DHT22;50827;47.014;7.652;2022-11-23T02:47:34;5.00;99.90
3752;DHT22;50827;47.014;7.652;2022-11-23T02:50:00;4.90;99.90
3752;DHT22;50827;47.014;7.652;2022-11-23T02:52:27;4.80;99.90
3752;DHT22;50827;47.014;7.652;2022-11-23T02:54:53;4.80;99.90
3752;DHT22;50827;47.014;7.652;2022-11-23T02:57:20;4.80;99.90
3752;DHT22;50827;47.014;7.652;2022-11-23T02:59:47;4.90;99.90
3752;DHT22;50827;47.014;7.652;2022-11-23T03:02:14;4.90;99.90
3752;DHT22;50827;47.014;7.652;2022-11-23T03:04:40;4.80;99.90
3752;DHT22;50827;47.014;7.652;2022-11-23T03:07:07;4.80;99.90
3752;DHT22;50827;47.014;7.652;2022-11-23T03:09:33;4.70;99.90
3752;DHT22;50827;47.014;7.652;2022-11-23T03:12:00;4.70;99.90
3752;DHT22;50827;47.014;7.652;2022-11-23T03:14:27;4.70;99.90
3752;DHT22;50827;47.014;7.652;2022-11-23T03:16:53;4.60;99.90
3752;DHT22;50827;47.014;7.652;2022-11-23T03:19:20;4.60;99.90
3752;DHT22;50827;47.014;7.652;2022-11-23T03:21:47;4.60;99.90
3752;DHT22;50827;47.014;7.652;2022-11-23T03:24:13;4.50;99.90
3752;DHT22;50827;47.014;7.652;2022-11-23T03:26:40;4.50;99.90
3752;DHT22;50827;47.014;7.652;2022-11-23T03:29:07;4.50;99.90
3752;DHT22;50827;47.014;7.652;2022-11-23T03:31:33;4.40;99.90
3752;DHT22;50827;47.014;7.652;2022-11-23T03:34:00;4.40;99.90
3752;DHT22;50827;47.014;7.652;2022-11-23T03:36:27;4.40;99.90
3752;DHT22;50827;47.014;7.652;2022-11-23T03:38:53;4.30;99.90
3752;DHT22;50827;47.014;7.652;2022-11-23T03:41:20;4.30;99.90
3752;DHT22;50827;47.014;7.652;2022-11-23T03:43:47;4.20;99.90
3752;DHT22;50827;47.014;7.652;2022-11-23T03:46:13;4.10;99.90
3752;DHT22;50827;47.014;7.652;2022-11-23T03:48:40;4.10;99.90
3752;DHT22;50827;47.014;7.652;2022-11-23T03:51:06;4.10;99.90
3752;DHT22;50827;47.014;7.652;2022-11-23T03:53:33;4.00;99.90
3752;DHT22;50827;47.014;7.652;2022-11-23T03:56:00;4.00;99.90
3752;DHT22;50827;47.014;7.652;2022-11-23T03:58:27;4.00;99.90
3752;DHT22;50827;47.014;7.652;2022-11-23T04:00:53;4.00;99.90
3752;DHT22;50827;47.014;7.652;2022-11-23T04:03:20;4.00;99.90
3752;DHT22;50827;47.014;7.652;2022-11-23T04:05:47;4.00;99.90
3752;DHT22;50827;47.014;7.652;2022-11-23T04:08:14;4.00;99.90
3752;DHT22;50827;47.014;7.652;2022-11-23T04:10:40;4.00;99.90
3752;DHT22;50827;47.014;7.652;2022-11-23T04:13:07;4.00;99.90
3752;DHT22;50827;47.014;7.652;2022-11-23T04:15:33;4.00;99.90
3752;DHT22;50827;47.014;7.652;2022-11-23T04:18:00;3.90;99.90
3752;DHT22;50827;47.014;7.652;2022-11-23T04:20:27;3.90;99.90
3752;DHT22;50827;47.014;7.652;2022-11-23T04:22:53;3.90;99.90
3752;DHT22;50827;47.014;7.652;2022-11-23T04:25:20;3.90;99.90
3752;DHT22;50827;47.014;7.652;2022-11-23T04:27:47;3.80;99.90
3752;DHT22;50827;47.014;7.652;2022-11-23T04:30:15;3.80;99.90
3752;DHT22;50827;47.014;7.652;2022-11-23T04:32:45;3.80;99.90
3752;DHT22;50827;47.014;7.652;2022-11-23T04:35:12;3.80;99.90
3752;DHT22;50827;47.014;7.652;2022-11-23T04:37:39;3.80;99.90
3752;DHT22;50827;47.014;7.652;2022-11-23T04:40:06;3.70;99.90
3752;DHT22;50827;47.014;7.652;2022-11-23T04:42:32;3.50;99.90
3752;DHT22;50827;47.014;7.652;2022-11-23T04:44:59;3.60;99.90
3752;DHT22;50827;47.014;7.652;2022-11-23T04:47:26;3.50;99.90
3752;DHT22;50827;47.014;7.652;2022-11-23T04:49:52;3.50;99.90
3752;DHT22;50827;47.014;7.652;2022-11-23T04:52:19;3.60;99.90
3752;DHT22;50827;47.014;7.652;2022-11-23T04:54:46;3.70;99.90
3752;DHT22;50827;47.014;7.652;2022-11-23T04:57:12;3.70;99.90
3752;DHT22;50827;47.014;7.652;2022-11-23T04:59:39;3.70;99.90
3752;DHT22;50827;47.014;7.652;2022-11-23T05:02:05;3.70;99.90
3752;DHT22;50827;47.014;7.652;2022-11-23T05:04:32;3.70;99.90
3752;DHT22;50827;47.014;7.652;2022-11-23T05:06:59;3.70;99.90
3752;DHT22;50827;47.014;7.652;2022-11-23T05:09:26;3.60;99.90
3752;DHT22;50827;47.014;7.652;2022-11-23T05:11:52;3.60;99.90
3752;DHT22;50827;47.014;7.652;2022-11-23T05:14:19;3.70;99.90
3752;DHT22;50827;47.014;7.652;2022-11-23T05:16:46;3.70;99.90
3752;DHT22;50827;47.014;7.652;2022-11-23T05:19:12;3.80;99.90
3752;DHT22;50827;47.014;7.652;2022-11-23T05:21:39;3.80;99.90
3752;DHT22;50827;47.014;7.652;2022-11-23T05:24:06;3.70;99.90
3752;DHT22;50827;47.014;7.652;2022-11-23T05:26:32;3.70;99.90
3752;DHT22;50827;47.014;7.652;2022-11-23T05:28:59;3.70;99.90
3752;DHT22;50827;47.014;7.652;2022-11-23T05:31:26;3.70;99.90
3752;DHT22;50827;47.014;7.652;2022-11-23T05:33:52;3.70;99.90
3752;DHT22;50827;47.014;7.652;2022-11-23T05:36:20;3.70;99.90
3752;DHT22;50827;47.014;7.652;2022-11-23T05:38:47;3.60;99.90
3752;DHT22;50827;47.014;7.652;2022-11-23T05:41:13;3.60;99.90
3752;DHT22;50827;47.014;7.652;2022-11-23T05:43:41;3.60;99.90
3752;DHT22;50827;47.014;7.652;2022-11-23T05:46:08;3.60;99.90
3752;DHT22;50827;47.014;7.652;2022-11-23T05:48:34;3.60;99.90
3752;DHT22;50827;47.014;7.652;2022-11-23T05:51:01;3.60;99.90
3752;DHT22;50827;47.014;7.652;2022-11-23T05:53:31;3.50;99.90
3752;DHT22;50827;47.014;7.652;2022-11-23T05:55:59;3.60;99.90
3752;DHT22;50827;47.014;7.652;2022-11-23T05:58:27;3.50;99.90
3752;DHT22;50827;47.014;7.652;2022-11-23T06:01:00;3.50;99.90
3752;DHT22;50827;47.014;7.652;2022-11-23T06:03:27;3.40;99.90
3752;DHT22;50827;47.014;7.652;2022-11-23T06:05:54;3.40;99.90
3752;DHT22;50827;47.014;7.652;2022-11-23T06:08:20;3.30;99.90
3752;DHT22;50827;47.014;7.652;2022-11-23T06:10:47;3.30;99.90
3752;DHT22;50827;47.014;7.652;2022-11-23T06:13:14;3.30;99.90
3752;DHT22;50827;47.014;7.652;2022-11-23T06:15:41;3.30;99.90
3752;DHT22;50827;47.014;7.652;2022-11-23T06:18:08;3.20;99.90
3752;DHT22;50827;47.014;7.652;2022-11-23T06:20:35;3.20;99.90
3752;DHT22;50827;47.014;7.652;2022-11-23T06:23:02;3.10;99.90
3752;DHT22;50827;47.014;7.652;2022-11-23T06:25:28;3.00;99.90
3752;DHT22;50827;47.014;7.652;2022-11-23T06:27:57;2.90;99.90
3752;DHT22;50827;47.014;7.652;2022-11-23T06:30:25;2.90;99.90
3752;DHT22;50827;47.014;7.652;2022-11-23T06:32:52;2.80;99.90
3752;DHT22;50827;47.014;7.652;2022-11-23T06:35:19;2.80;99.90
3752;DHT22;50827;47.014;7.652;2022-11-23T06:37:50;2.80;99.90
3752;DHT22;50827;47.014;7.652;2022-11-23T06:40:17;2.80;99.90
3752;DHT22;50827;47.014;7.652;2022-11-23T06:42:44;2.70;99.90
3752;DHT22;50827;47.014;7.652;2022-11-23T06:45:11;2.70;99.90
3752;DHT22;50827;47.014;7.652;2022-11-23T06:47:38;2.70;99.90
3752;DHT22;50827;47.014;7.652;2022-11-23T06:50:05;2.70;99.90
3752;DHT22;50827;47.014;7.652;2022-11-23T06:52:32;2.60;99.90
3752;DHT22;50827;47.014;7.652;2022-11-23T06:54:58;2.60;99.90
3752;DHT22;50827;47.014;7.652;2022-11-23T06:57:25;2.70;99.90
3752;DHT22;50827;47.014;7.652;2022-11-23T06:59:52;2.70;99.90
3752;DHT22;50827;47.014;7.652;2022-11-23T07:02:18;2.70;99.90
3752;DHT22;50827;47.014;7.652;2022-11-23T07:04:45;2.70;99.90
3752;DHT22;50827;47.014;7.652;2022-11-23T07:07:12;2.70;99.90
3752;DHT22;50827;47.014;7.652;2022-11-23T07:09:39;2.70;99.90
3752;DHT22;50827;47.014;7.652;2022-11-23T07:12:06;2.70;99.90
3752;DHT22;50827;47.014;7.652;2022-11-23T07:14:33;2.80;99.90
3752;DHT22;50827;47.014;7.652;2022-11-23T07:16:59;2.80;99.90
3752;DHT22;50827;47.014;7.652;2022-11-23T07:19:26;2.80;99.90
3752;DHT22;50827;47.014;7.652;2022-11-23T07:21:52;2.90;99.90
3752;DHT22;50827;47.014;7.652;2022-11-23T07:24:19;2.90;99.90
3752;DHT22;50827;47.014;7.652;2022-11-23T07:26:46;2.90;99.90
3752;DHT22;50827;47.014;7.652;2022-11-23T07:29:12;3.00;99.90
3752;DHT22;50827;47.014;7.652;2022-11-23T07:31:39;3.00;99.90
3752;DHT22;50827;47.014;7.652;2022-11-23T07:34:06;3.00;99.90
3752;DHT22;50827;47.014;7.652;2022-11-23T07:36:34;2.90;99.90
3752;DHT22;50827;47.014;7.652;2022-11-23T07:39:01;2.90;99.90
3752;DHT22;50827;47.014;7.652;2022-11-23T07:41:28;2.90;99.90
3752;DHT22;50827;47.014;7.652;2022-11-23T07:43:54;2.90;99.90
3752;DHT22;50827;47.014;7.652;2022-11-23T07:46:21;2.90;99.90
3752;DHT22;50827;47.014;7.652;2022-11-23T07:48:48;2.90;99.90
3752;DHT22;50827;47.014;7.652;2022-11-23T07:51:15;3.00;99.90
3752;DHT22;50827;47.014;7.652;2022-11-23T07:53:42;3.00;99.90
3752;DHT22;50827;47.014;7.652;2022-11-23T07:56:09;3.00;99.90
3752;DHT22;50827;47.014;7.652;2022-11-23T07:58:35;3.00;99.90
3752;DHT22;50827;47.014;7.652;2022-11-23T08:01:02;3.00;99.90
3752;DHT22;50827;47.014;7.652;2022-11-23T08:03:29;3.00;99.90
3752;DHT22;50827;47.014;7.652;2022-11-23T08:05:56;3.00;99.90
3752;DHT22;50827;47.014;7.652;2022-11-23T08:08:23;3.00;99.90
3752;DHT22;50827;47.014;7.652;2022-11-23T08:10:49;3.00;99.90
3752;DHT22;50827;47.014;7.652;2022-11-23T08:13:20;3.10;99.90
3752;DHT22;50827;47.014;7.652;2022-11-23T08:15:47;3.00;99.90
3752;DHT22;50827;47.014;7.652;2022-11-23T08:18:20;3.10;99.90
3752;DHT22;50827;47.014;7.652;2022-11-23T08:20:47;3.10;99.90
3752;DHT22;50827;47.014;7.652;2022-11-23T08:23:13;3.10;99.90
3752;DHT22;50827;47.014;7.652;2022-11-23T08:25:40;3.10;99.90
3752;DHT22;50827;47.014;7.652;2022-11-23T08:28:07;3.20;99.90
3752;DHT22;50827;47.014;7.652;2022-11-23T08:30:34;3.30;99.90
3752;DHT22;50827;47.014;7.652;2022-11-23T08:33:05;3.30;99.90
3752;DHT22;50827;47.014;7.652;2022-11-23T08:35:36;3.40;99.90
3752;DHT22;50827;47.014;7.652;2022-11-23T08:38:04;3.40;99.90
3752;DHT22;50827;47.014;7.652;2022-11-23T08:40:31;3.40;99.90
3752;DHT22;50827;47.014;7.652;2022-11-23T08:42:58;3.50;99.90
3752;DHT22;50827;47.014;7.652;2022-11-23T08:45:25;3.50;99.90
3752;DHT22;50827;47.014;7.652;2022-11-23T08:47:52;3.70;99.90
3752;DHT22;50827;47.014;7.652;2022-11-23T08:50:20;3.60;99.90
3752;DHT22;50827;47.014;7.652;2022-11-23T08:52:46;3.70;99.90
3752;DHT22;50827;47.014;7.652;2022-11-23T08:55:13;3.70;99.90
3752;DHT22;50827;47.014;7.652;2022-11-23T08:57:40;3.70;99.90
3752;DHT22;50827;47.014;7.652;2022-11-23T09:00:07;3.80;99.90
3752;DHT22;50827;47.014;7.652;2022-11-23T09:02:34;3.90;99.90
3752;DHT22;50827;47.014;7.652;2022-11-23T09:05:00;3.90;99.90
3752;DHT22;50827;47.014;7.652;2022-11-23T09:07:27;3.90;99.90
3752;DHT22;50827;47.014;7.652;2022-11-23T09:09:53;3.90;99.90
3752;DHT22;50827;47.014;7.652;2022-11-23T09:12:20;4.00;99.90
3752;DHT22;50827;47.014;7.652;2022-11-23T09:14:47;4.10;99.90
3752;DHT22;50827;47.014;7.652;2022-11-23T09:17:13;4.10;99.90
3752;DHT22;50827;47.014;7.652;2022-11-23T09:19:40;4.20;99.90
3752;DHT22;50827;47.014;7.652;2022-11-23T09:22:06;4.20;99.90
3752;DHT22;50827;47.014;7.652;2022-11-23T09:24:33;4.20;99.90
3752;DHT22;50827;47.014;7.652;2022-11-23T09:27:00;4.30;99.90
3752;DHT22;50827;47.014;7.652;2022-11-23T09:29:27;4.30;99.90
3752;DHT22;50827;47.014;7.652;2022-11-23T09:31:54;4.40;99.90
3752;DHT22;50827;47.014;7.652;2022-11-23T09:34:20;4.50;99.90
3752;DHT22;50827;47.014;7.652;2022-11-23T09:36:48;4.50;99.90
3752;DHT22;50827;47.014;7.652;2022-11-23T09:39:15;4.60;99.90
3752;DHT22;50827;47.014;7.652;2022-11-23T09:47:36;4.80;99.90
3752;DHT22;50827;47.014;7.652;2022-11-23T09:52:35;4.90;99.90
3752;DHT22;50827;47.014;7.652;2022-11-23T09:55:41;5.00;99.90
3752;DHT22;50827;47.014;7.652;2022-11-23T09:58:17;5.00;99.90
3752;DHT22;50827;47.014;7.652;2022-11-23T10:00:55;5.10;99.90
3752;DHT22;50827;47.014;7.652;2022-11-23T10:03:22;5.10;99.90
3752;DHT22;50827;47.014;7.652;2022-11-23T10:06:19;5.20;99.90
3752;DHT22;50827;47.014;7.652;2022-11-23T10:09:16;5.20;99.90
3752;DHT22;50827;47.014;7.652;2022-11-23T10:12:33;5.20;99.90
3752;DHT22;50827;47.014;7.652;2022-11-23T10:15:08;5.30;99.90
3752;DHT22;50827;47.014;7.652;2022-11-23T10:23:15;5.50;99.90
3752;DHT22;50827;47.014;7.652;2022-11-23T10:25:49;5.50;99.90
3752;DHT22;50827;47.014;7.652;2022-11-23T10:28:20;5.50;99.90
3752;DHT22;50827;47.014;7.652;2022-11-23T10:31:03;5.50;99.90
3752;DHT22;50827;47.014;7.652;2022-11-23T10:36:10;5.70;99.90
3752;DHT22;50827;47.014;7.652;2022-11-23T10:38:39;5.70;99.90
3752;DHT22;50827;47.014;7.652;2022-11-23T10:41:08;5.70;99.90
3752;DHT22;50827;47.014;7.652;2022-11-23T10:46:30;5.80;99.90
3752;DHT22;50827;47.014;7.652;2022-11-23T10:56:50;6.00;99.90
3752;DHT22;50827;47.014;7.652;2022-11-23T10:59:33;6.10;99.90
3752;DHT22;50827;47.014;7.652;2022-11-23T11:02:16;6.10;99.90
3752;DHT22;50827;47.014;7.652;2022-11-23T11:04:44;6.20;99.90
3752;DHT22;50827;47.014;7.652;2022-11-23T11:09:38;6.20;99.90
3752;DHT22;50827;47.014;7.652;2022-11-23T11:12:16;6.30;99.90
3752;DHT22;50827;47.014;7.652;2022-11-23T11:17:33;6.40;99.90
3752;DHT22;50827;47.014;7.652;2022-11-23T11:22:53;6.50;99.90
3752;DHT22;50827;47.014;7.652;2022-11-23T11:25:37;6.50;99.90
3752;DHT22;50827;47.014;7.652;2022-11-23T11:28:16;6.60;99.90
3752;DHT22;50827;47.014;7.652;2022-11-23T11:30:53;6.70;99.90
3752;DHT22;50827;47.014;7.652;2022-11-23T11:33:39;6.70;99.90
3752;DHT22;50827;47.014;7.652;2022-11-23T11:36:11;6.70;99.90
3752;DHT22;50827;47.014;7.652;2022-11-23T11:38:40;6.80;99.90
3752;DHT22;50827;47.014;7.652;2022-11-23T11:41:18;6.80;99.90
3752;DHT22;50827;47.014;7.652;2022-11-23T11:44:16;6.80;99.90
3752;DHT22;50827;47.014;7.652;2022-11-23T11:46:48;6.90;99.90
3752;DHT22;50827;47.014;7.652;2022-11-23T11:49:30;6.90;99.90
3752;DHT22;50827;47.014;7.652;2022-11-23T11:52:08;7.00;99.90
3752;DHT22;50827;47.014;7.652;2022-11-23T11:59:44;7.10;99.90
3752;DHT22;50827;47.014;7.652;2022-11-23T12:02:30;7.10;99.90
3752;DHT22;50827;47.014;7.652;2022-11-23T12:05:24;7.20;99.90
3752;DHT22;50827;47.014;7.652;2022-11-23T12:08:17;7.20;99.90
3752;DHT22;50827;47.014;7.652;2022-11-23T12:10:51;7.30;99.90
3752;DHT22;50827;47.014;7.652;2022-11-23T12:13:23;7.30;99.90
3752;DHT22;50827;47.014;7.652;2022-11-23T12:16:09;7.30;99.90
3752;DHT22;50827;47.014;7.652;2022-11-23T12:36:30;7.40;99.90
3752;DHT22;50827;47.014;7.652;2022-11-23T12:48:21;7.80;99.90
3752;DHT22;50827;47.014;7.652;2022-11-23T12:51:08;7.80;99.90
3752;DHT22;50827;47.014;7.652;2022-11-23T12:59:13;7.80;99.90
3752;DHT22;50827;47.014;7.652;2022-11-23T13:01:43;7.80;99.90
3752;DHT22;50827;47.014;7.652;2022-11-23T13:07:16;7.80;99.90
3752;DHT22;50827;47.014;7.652;2022-11-23T13:21:36;7.80;99.90
3752;DHT22;50827;47.014;7.652;2022-11-23T13:24:22;7.80;99.90
3752;DHT22;50827;47.014;7.652;2022-11-23T13:29:57;7.90;99.90
3752;DHT22;50827;47.014;7.652;2022-11-23T13:34:59;7.90;99.90
3752;DHT22;50827;47.014;7.652;2022-11-23T13:37:26;7.90;99.90
3752;DHT22;50827;47.014;7.652;2022-11-23T13:42:26;7.90;99.90
3752;DHT22;50827;47.014;7.652;2022-11-23T13:50:30;8.10;99.90
3752;DHT22;50827;47.014;7.652;2022-11-23T13:52:57;8.10;99.90
3752;DHT22;50827;47.014;7.652;2022-11-23T13:55:36;8.10;99.90
3752;DHT22;50827;47.014;7.652;2022-11-23T14:00:49;8.10;99.90
3752;DHT22;50827;47.014;7.652;2022-11-23T14:06:17;8.10;99.90
3752;DHT22;50827;47.014;7.652;2022-11-23T14:08:47;8.10;99.90
3752;DHT22;50827;47.014;7.652;2022-11-23T14:11:19;8.10;99.90
3752;DHT22;50827;47.014;7.652;2022-11-23T14:13:52;8.10;99.90
3752;DHT22;50827;47.014;7.652;2022-11-23T14:25:11;8.00;99.90
3752;DHT22;50827;47.014;7.652;2022-11-23T14:41:21;8.30;99.90
3752;DHT22;50827;47.014;7.652;2022-11-23T14:43:49;8.30;99.90
3752;DHT22;50827;47.014;7.652;2022-11-23T14:46:19;8.30;99.90
3752;DHT22;50827;47.014;7.652;2022-11-23T14:48:47;8.30;99.90
3752;DHT22;50827;47.014;7.652;2022-11-23T14:51:21;8.30;99.90
3752;DHT22;50827;47.014;7.652;2022-11-23T14:53:54;8.30;99.90
3752;DHT22;50827;47.014;7.652;2022-11-23T14:59:05;8.30;99.90
3752;DHT22;50827;47.014;7.652;2022-11-23T15:01:33;8.30;99.90
3752;DHT22;50827;47.014;7.652;2022-11-23T15:04:24;8.30;99.90
3752;DHT22;50827;47.014;7.652;2022-11-23T15:06:56;8.40;99.90
3752;DHT22;50827;47.014;7.652;2022-11-23T15:09:46;8.30;99.90
3752;DHT22;50827;47.014;7.652;2022-11-23T15:12:25;8.30;99.90
3752;DHT22;50827;47.014;7.652;2022-11-23T15:14:54;8.20;99.90
3752;DHT22;50827;47.014;7.652;2022-11-23T15:17:23;8.10;99.90
3752;DHT22;50827;47.014;7.652;2022-11-23T15:19:58;8.00;99.90
3752;DHT22;50827;47.014;7.652;2022-11-23T15:22:25;8.00;99.90
3752;DHT22;50827;47.014;7.652;2022-11-23T15:24:53;8.00;99.90
3752;DHT22;50827;47.014;7.652;2022-11-23T15:27:25;8.00;99.90
3752;DHT22;50827;47.014;7.652;2022-11-23T15:29:56;8.00;99.90
3752;DHT22;50827;47.014;7.652;2022-11-23T15:32:29;7.90;99.90
3752;DHT22;50827;47.014;7.652;2022-11-23T15:35:03;7.90;99.90
3752;DHT22;50827;47.014;7.652;2022-11-23T15:37:37;7.90;99.90
3752;DHT22;50827;47.014;7.652;2022-11-23T15:40:10;7.90;99.90
3752;DHT22;50827;47.014;7.652;2022-11-23T15:42:37;7.90;99.90
3752;DHT22;50827;47.014;7.652;2022-11-23T15:45:04;7.80;99.90
3752;DHT22;50827;47.014;7.652;2022-11-23T15:47:31;7.90;99.90
3752;DHT22;50827;47.014;7.652;2022-11-23T15:50:06;7.90;99.90
3752;DHT22;50827;47.014;7.652;2022-11-23T15:52:35;7.80;99.90
3752;DHT22;50827;47.014;7.652;2022-11-23T15:55:10;7.80;99.90
3752;DHT22;50827;47.014;7.652;2022-11-23T15:57:39;7.80;99.90
3752;DHT22;50827;47.014;7.652;2022-11-23T16:00:08;7.90;99.90
3752;DHT22;50827;47.014;7.652;2022-11-23T16:02:46;7.90;99.90
3752;DHT22;50827;47.014;7.652;2022-11-23T16:10:25;7.80;99.90
3752;DHT22;50827;47.014;7.652;2022-11-23T16:12:55;7.80;99.90
3752;DHT22;50827;47.014;7.652;2022-11-23T16:17:53;7.70;99.90
3752;DHT22;50827;47.014;7.652;2022-11-23T16:20:22;7.70;99.90
3752;DHT22;50827;47.014;7.652;2022-11-23T16:22:49;7.70;99.90
3752;DHT22;50827;47.014;7.652;2022-11-23T16:25:27;7.70;99.90
3752;DHT22;50827;47.014;7.652;2022-11-23T16:28:05;7.60;99.90
3752;DHT22;50827;47.014;7.652;2022-11-23T16:30:41;7.60;99.90
3752;DHT22;50827;47.014;7.652;2022-11-23T16:33:14;7.60;99.90
3752;DHT22;50827;47.014;7.652;2022-11-23T16:35:41;7.60;99.90
3752;DHT22;50827;47.014;7.652;2022-11-23T16:38:08;7.50;99.90
3752;DHT22;50827;47.014;7.652;2022-11-23T16:40:35;7.50;99.90
3752;DHT22;50827;47.014;7.652;2022-11-23T16:43:02;7.50;99.90
3752;DHT22;50827;47.014;7.652;2022-11-23T16:45:30;7.50;99.90
3752;DHT22;50827;47.014;7.652;2022-11-23T16:47:58;7.50;99.90
3752;DHT22;50827;47.014;7.652;2022-11-23T16:50:32;7.50;99.90
3752;DHT22;50827;47.014;7.652;2022-11-23T16:53:08;7.50;99.90
3752;DHT22;50827;47.014;7.652;2022-11-23T16:55:36;7.50;99.90
3752;DHT22;50827;47.014;7.652;2022-11-23T16:58:13;7.60;99.90
3752;DHT22;50827;47.014;7.652;2022-11-23T17:00:40;7.60;99.90
3752;DHT22;50827;47.014;7.652;2022-11-23T17:03:12;7.50;99.90
3752;DHT22;50827;47.014;7.652;2022-11-23T17:05:39;7.40;99.90
3752;DHT22;50827;47.014;7.652;2022-11-23T17:08:06;7.40;99.90
3752;DHT22;50827;47.014;7.652;2022-11-23T17:10:35;7.40;99.90
3752;DHT22;50827;47.014;7.652;2022-11-23T17:13:02;7.30;99.90
3752;DHT22;50827;47.014;7.652;2022-11-23T17:15:29;7.20;99.90
3752;DHT22;50827;47.014;7.652;2022-11-23T17:17:56;7.10;99.90
3752;DHT22;50827;47.014;7.652;2022-11-23T17:20:23;7.00;99.90
3752;DHT22;50827;47.014;7.652;2022-11-23T17:22:50;7.00;99.90
3752;DHT22;50827;47.014;7.652;2022-11-23T17:25:17;7.00;99.90
3752;DHT22;50827;47.014;7.652;2022-11-23T17:27:44;6.90;99.90
3752;DHT22;50827;47.014;7.652;2022-11-23T17:30:16;6.90;99.90
3752;DHT22;50827;47.014;7.652;2022-11-23T17:32:43;7.00;99.90
3752;DHT22;50827;47.014;7.652;2022-11-23T17:35:10;6.90;99.90
3752;DHT22;50827;47.014;7.652;2022-11-23T17:37:36;6.80;99.90
3752;DHT22;50827;47.014;7.652;2022-11-23T17:40:12;6.90;99.90
3752;DHT22;50827;47.014;7.652;2022-11-23T17:42:39;6.90;99.90
3752;DHT22;50827;47.014;7.652;2022-11-23T17:45:06;6.90;99.90
3752;DHT22;50827;47.014;7.652;2022-11-23T17:47:33;6.90;99.90
3752;DHT22;50827;47.014;7.652;2022-11-23T17:50:00;6.90;99.90
3752;DHT22;50827;47.014;7.652;2022-11-23T17:52:26;7.10;99.90
3752;DHT22;50827;47.014;7.652;2022-11-23T17:54:53;7.10;99.90
3752;DHT22;50827;47.014;7.652;2022-11-23T17:57:24;7.10;99.90
3752;DHT22;50827;47.014;7.652;2022-11-23T17:59:52;7.20;99.90
3752;DHT22;50827;47.014;7.652;2022-11-23T18:02:19;7.20;99.90
3752;DHT22;50827;47.014;7.652;2022-11-23T18:04:46;7.20;99.90
3752;DHT22;50827;47.014;7.652;2022-11-23T18:07:14;7.30;99.90
3752;DHT22;50827;47.014;7.652;2022-11-23T18:09:43;7.40;99.90
3752;DHT22;50827;47.014;7.652;2022-11-23T18:12:10;7.40;99.90
3752;DHT22;50827;47.014;7.652;2022-11-23T18:14:37;7.50;99.90
3752;DHT22;50827;47.014;7.652;2022-11-23T18:17:04;7.50;99.90
3752;DHT22;50827;47.014;7.652;2022-11-23T18:19:31;7.60;99.90
3752;DHT22;50827;47.014;7.652;2022-11-23T18:21:58;7.60;99.90
3752;DHT22;50827;47.014;7.652;2022-11-23T18:24:25;7.60;99.90
3752;DHT22;50827;47.014;7.652;2022-11-23T18:26:51;7.70;99.90
3752;DHT22;50827;47.014;7.652;2022-11-23T18:29:18;7.70;99.90
3752;DHT22;50827;47.014;7.652;2022-11-23T18:31:44;7.70;99.90
3752;DHT22;50827;47.014;7.652;2022-11-23T18:34:11;7.80;99.90
3752;DHT22;50827;47.014;7.652;2022-11-23T18:36:38;7.80;99.90
3752;DHT22;50827;47.014;7.652;2022-11-23T18:39:05;7.90;99.90
3752;DHT22;50827;47.014;7.652;2022-11-23T18:41:31;8.00;99.90